createdAt,value
2023-03-27T00:01:00.706Z,1.60
2023-03-27T00:03:28.663Z,1.92
2023-03-27T00:06:04.273Z,2.25
2023-03-27T00:08:31.743Z,1.98
2023-03-27T00:10:58.829Z,2.03
2023-03-27T00:13:25.798Z,2.10
2023-03-27T00:15:54.413Z,1.95
2023-03-27T00:18:21.878Z,2.00
2023-03-27T00:20:49.334Z,1.75
2023-03-27T00:23:16.520Z,1.48
2023-03-27T00:25:43.233Z,1.80
2023-03-27T00:28:09.965Z,1.95
2023-03-27T00:30:37.978Z,1.50
2023-03-27T00:33:04.984Z,1.63
2023-03-27T00:35:32.453Z,1.58
2023-03-27T00:37:59.231Z,1.40
2023-03-27T00:40:26.063Z,1.13
2023-03-27T00:42:57.767Z,1.40
2023-03-27T00:45:28.880Z,1.40
2023-03-27T00:47:59.186Z,1.13
2023-03-27T00:50:28.584Z,1.10
2023-03-27T00:53:01.267Z,0.82
2023-03-27T00:55:29.126Z,0.60
2023-03-27T00:58:00.233Z,0.68
2023-03-27T01:00:27.314Z,0.70
2023-03-27T01:02:54.145Z,0.55
2023-03-27T01:05:21.534Z,0.57
2023-03-27T01:08:00.512Z,0.60
2023-03-27T01:10:52.790Z,0.60
2023-03-27T01:13:24.191Z,0.60
2023-03-27T01:16:02.968Z,0.70
2023-03-27T01:18:42.027Z,0.75
2023-03-27T01:21:12.277Z,0.95
2023-03-27T01:23:59.425Z,0.80
2023-03-27T01:26:47.554Z,0.80
2023-03-27T01:29:22.301Z,0.85
2023-03-27T01:31:52.224Z,0.73
2023-03-27T01:34:27.820Z,0.80
2023-03-27T01:37:18.849Z,1.00
2023-03-27T01:39:46.179Z,0.88
2023-03-27T01:42:31.086Z,1.38
2023-03-27T01:45:03.135Z,1.45
2023-03-27T01:47:36.099Z,1.38
2023-03-27T01:50:34.125Z,1.52
2023-03-27T01:53:04.319Z,1.30
2023-03-27T01:55:33.369Z,1.45
2023-03-27T01:58:15.053Z,1.50
2023-03-27T02:00:51.603Z,1.30
2023-03-27T02:03:38.125Z,1.17
2023-03-27T02:06:08.950Z,1.38
2023-03-27T02:09:04.636Z,1.33
2023-03-27T02:11:37.169Z,1.83
2023-03-27T02:14:09.692Z,1.70
2023-03-27T02:16:41.404Z,1.90
2023-03-27T02:19:35.257Z,2.10
2023-03-27T02:22:02.417Z,1.88
2023-03-27T02:24:29.760Z,1.75
2023-03-27T02:27:04.344Z,1.90
2023-03-27T02:29:43.094Z,1.60
2023-03-27T02:32:32.667Z,1.60
2023-03-27T02:35:15.516Z,1.98
2023-03-27T02:37:56.768Z,2.05
2023-03-27T02:40:40.005Z,2.10
2023-03-27T02:43:08.520Z,2.75
2023-03-27T02:45:51.276Z,2.25
2023-03-27T02:48:17.951Z,4.13
2023-03-27T02:50:57.278Z,5.00
2023-03-27T02:53:24.887Z,4.57
2023-03-27T02:56:02.149Z,4.45
2023-03-27T02:58:32.400Z,4.78
2023-03-27T03:01:00.157Z,6.03
2023-03-27T03:03:30.662Z,4.40
2023-03-27T03:05:57.870Z,4.40
2023-03-27T03:08:25.490Z,3.80
2023-03-27T03:10:52.138Z,4.20
2023-03-27T03:13:19.746Z,4.38
2023-03-27T03:15:46.870Z,5.28
2023-03-27T03:18:14.766Z,5.43
2023-03-27T03:20:41.566Z,4.72
2023-03-27T03:23:09.212Z,6.18
2023-03-27T03:25:35.995Z,4.63
2023-03-27T03:28:03.034Z,4.20
2023-03-27T03:30:30.456Z,4.55
2023-03-27T03:32:57.546Z,4.43
2023-03-27T03:35:24.950Z,3.65
2023-03-27T03:37:53.002Z,3.70
2023-03-27T03:40:20.206Z,3.40
2023-03-27T03:42:48.329Z,3.00
2023-03-27T03:45:15.542Z,3.50
2023-03-27T03:47:43.142Z,3.15
2023-03-27T03:50:11.132Z,3.63
2023-03-27T03:52:38.216Z,3.95
2023-03-27T03:55:06.111Z,4.43
2023-03-27T03:57:33.194Z,6.40
2023-03-27T03:59:59.932Z,6.07
2023-03-27T04:02:29.655Z,6.53
2023-03-27T04:05:00.239Z,5.38
2023-03-27T04:07:35.795Z,5.93
2023-03-27T04:10:03.980Z,6.15
2023-03-27T04:12:30.802Z,5.15
2023-03-27T04:14:57.580Z,5.90
2023-03-27T04:17:26.558Z,6.05
2023-03-27T04:19:56.240Z,5.10
2023-03-27T04:22:23.468Z,4.90
2023-03-27T04:24:50.972Z,4.20
2023-03-27T04:27:18.290Z,4.95
2023-03-27T04:29:47.536Z,4.20
2023-03-27T04:32:19.345Z,4.07
2023-03-27T04:34:46.943Z,4.22
2023-03-27T04:37:13.773Z,4.00
2023-03-27T04:39:43.046Z,3.53
2023-03-27T04:42:10.758Z,4.55
2023-03-27T04:44:37.886Z,3.92
2023-03-27T04:47:08.987Z,3.60
2023-03-27T04:49:40.592Z,3.42
2023-03-27T04:52:07.477Z,4.90
2023-03-27T04:54:34.731Z,4.20
2023-03-27T04:57:02.287Z,3.33
2023-03-27T04:59:32.036Z,4.32
2023-03-27T05:01:59.632Z,3.15
2023-03-27T05:04:29.077Z,2.88
2023-03-27T05:06:56.664Z,3.05
2023-03-27T05:09:23.593Z,2.92
2023-03-27T05:11:50.807Z,2.85
2023-03-27T05:14:22.357Z,2.28
2023-03-27T05:16:50.682Z,2.70
2023-03-27T05:19:19.557Z,4.18
2023-03-27T05:21:47.223Z,2.70
2023-03-27T05:24:15.542Z,3.00
2023-03-27T05:26:43.176Z,2.97
2023-03-27T05:29:10.120Z,4.18
2023-03-27T05:31:37.493Z,3.60
2023-03-27T05:34:05.796Z,3.25
2023-03-27T05:36:32.547Z,3.88
2023-03-27T05:38:59.333Z,2.42
2023-03-27T05:41:26.032Z,2.22
2023-03-27T05:43:52.750Z,2.40
2023-03-27T05:46:21.287Z,1.88
2023-03-27T05:48:48.685Z,1.90
2023-03-27T05:51:16.122Z,1.77
2023-03-27T05:53:43.230Z,2.42
2023-03-27T05:56:10.618Z,2.65
2023-03-27T05:58:37.436Z,2.25
2023-03-27T06:01:04.564Z,1.88
2023-03-27T06:03:31.576Z,2.10
2023-03-27T06:06:01.144Z,1.83
2023-03-27T06:08:29.597Z,2.10
2023-03-27T06:10:56.523Z,2.38
2023-03-27T06:13:24.341Z,2.45
2023-03-27T06:15:53.563Z,1.83
2023-03-27T06:18:20.327Z,1.50
2023-03-27T06:20:47.042Z,1.55
2023-03-27T06:23:13.838Z,2.42
2023-03-27T06:25:40.537Z,1.80
2023-03-27T06:28:09.882Z,2.85
2023-03-27T06:30:39.524Z,2.35
2023-03-27T06:33:07.780Z,2.33
2023-03-27T06:35:35.453Z,2.35
2023-03-27T06:38:05.181Z,1.98
2023-03-27T06:40:35.120Z,2.45
2023-03-27T06:43:04.405Z,2.42
2023-03-27T06:45:33.432Z,3.38
2023-03-27T06:48:17.276Z,1.98
2023-03-27T06:50:48.352Z,1.80
2023-03-27T06:53:26.737Z,2.00
2023-03-27T06:55:55.590Z,2.50
2023-03-27T06:58:22.698Z,2.05
2023-03-27T07:00:49.852Z,2.47
2023-03-27T07:03:18.288Z,1.50
2023-03-27T07:05:45.625Z,1.42
2023-03-27T07:10:56.325Z,2.17
2023-03-27T07:13:34.436Z,2.42
2023-03-27T07:16:04.580Z,2.50
2023-03-27T07:18:31.527Z,2.70
2023-03-27T07:21:02.564Z,2.67
2023-03-27T07:23:34.602Z,2.92
2023-03-27T07:26:21.087Z,2.10
2023-03-27T07:29:00.882Z,1.52
2023-03-27T07:31:46.130Z,2.22
2023-03-27T07:34:16.249Z,1.73
2023-03-27T07:36:43.448Z,1.58
2023-03-27T07:39:12.603Z,1.85
2023-03-27T07:41:39.691Z,1.42
2023-03-27T07:44:06.477Z,2.03
2023-03-27T07:46:33.355Z,1.63
2023-03-27T07:49:00.716Z,1.55
2023-03-27T07:51:27.853Z,2.63
2023-03-27T07:53:56.636Z,2.13
2023-03-27T07:56:23.600Z,1.98
2023-03-27T07:58:51.683Z,1.60
2023-03-27T08:01:18.510Z,1.50
2023-03-27T08:03:47.430Z,2.25
2023-03-27T08:06:14.329Z,1.70
2023-03-27T08:08:41.542Z,2.65
2023-03-27T08:11:19.441Z,1.83
2023-03-27T08:13:50.181Z,1.88
2023-03-27T08:16:18.431Z,1.83
2023-03-27T08:18:46.973Z,3.25
2023-03-27T08:21:13.672Z,3.65
2023-03-27T08:23:41.153Z,2.58
2023-03-27T08:26:08.017Z,1.70
2023-03-27T08:28:35.852Z,1.48
2023-03-27T08:31:09.278Z,1.33
2023-03-27T08:33:36.649Z,2.50
2023-03-27T08:36:05.188Z,1.52
2023-03-27T08:38:33.711Z,1.40
2023-03-27T08:41:01.264Z,1.73
2023-03-27T08:43:41.979Z,1.60
2023-03-27T08:46:19.868Z,1.75
2023-03-27T08:48:59.480Z,1.20
2023-03-27T08:51:33.917Z,1.33
2023-03-27T08:54:08.827Z,1.75
2023-03-27T08:56:35.655Z,1.83
2023-03-27T08:59:02.609Z,1.30
2023-03-27T09:01:37.340Z,1.13
2023-03-27T09:04:22.886Z,1.30
2023-03-27T09:07:08.005Z,1.65
2023-03-27T09:09:46.917Z,1.85
2023-03-27T09:12:27.164Z,1.70
2023-03-27T09:15:00.195Z,1.20
2023-03-27T09:17:31.118Z,1.50
2023-03-27T09:20:07.200Z,1.33
2023-03-27T09:22:44.210Z,1.80
2023-03-27T09:25:23.620Z,2.58
2023-03-27T09:27:50.844Z,2.13
2023-03-27T09:30:27.204Z,1.25
2023-03-27T09:32:59.662Z,1.58
2023-03-27T09:35:26.409Z,1.40
2023-03-27T09:38:07.161Z,1.70
2023-03-27T09:40:43.388Z,1.23
2023-03-27T09:43:17.936Z,1.20
2023-03-27T09:45:45.112Z,1.85
2023-03-27T09:48:17.175Z,1.30
2023-03-27T09:50:54.019Z,1.10
2023-03-27T09:53:23.116Z,1.30
2023-03-27T09:56:05.530Z,1.23
2023-03-27T09:58:44.206Z,2.03
2023-03-27T10:01:16.241Z,1.90
2023-03-27T10:03:49.204Z,1.50
2023-03-27T10:06:26.375Z,0.73
2023-03-27T10:08:55.579Z,1.25
2023-03-27T10:11:33.144Z,1.60
2023-03-27T10:14:01.106Z,1.42
2023-03-27T10:16:28.075Z,0.80
2023-03-27T10:18:57.098Z,1.92
2023-03-27T10:21:26.304Z,1.33
2023-03-27T10:23:59.996Z,2.78
2023-03-27T10:26:27.725Z,1.58
2023-03-27T10:28:58.802Z,1.10
2023-03-27T10:31:40.228Z,1.38
2023-03-27T10:34:27.891Z,0.95
2023-03-27T10:36:55.774Z,1.00
2023-03-27T10:39:27.098Z,1.33
2023-03-27T10:41:53.991Z,1.20
2023-03-27T10:44:21.447Z,1.10
2023-03-27T10:46:48.310Z,0.95
2023-03-27T10:49:51.770Z,1.65
2023-03-27T10:52:49.042Z,0.93
2023-03-27T10:55:29.106Z,1.48
2023-03-27T10:57:57.842Z,1.77
2023-03-27T11:00:56.444Z,1.23
2023-03-27T11:03:39.959Z,1.00
2023-03-27T11:08:56.898Z,1.92
2023-03-27T11:11:32.135Z,1.73
2023-03-27T11:14:02.521Z,1.17
2023-03-27T11:16:55.678Z,1.42
2023-03-27T11:19:34.865Z,1.25
2023-03-27T11:22:32.363Z,0.85
2023-03-27T11:25:27.252Z,1.00
2023-03-27T11:27:58.586Z,1.60
2023-03-27T11:30:44.831Z,1.15
2023-03-27T11:33:24.404Z,0.90
2023-03-27T11:36:04.490Z,0.60
2023-03-27T11:38:34.424Z,1.13
2023-03-27T11:41:01.971Z,1.02
2023-03-27T11:43:28.758Z,1.55
2023-03-27T11:46:14.515Z,0.52
2023-03-27T11:48:51.015Z,1.23
2023-03-27T11:51:37.008Z,0.90
2023-03-27T11:54:13.503Z,1.20
2023-03-27T11:56:58.124Z,0.90
2023-03-27T11:59:51.387Z,1.52
2023-03-27T12:02:34.556Z,1.00
2023-03-27T12:07:59.558Z,0.80
2023-03-27T12:10:31.969Z,1.23
2023-03-27T12:13:21.561Z,1.27
2023-03-27T12:16:03.959Z,0.75
2023-03-27T12:18:37.626Z,1.65
2023-03-27T12:21:25.680Z,1.27
2023-03-27T12:24:07.797Z,1.27
2023-03-27T12:26:58.855Z,1.45
2023-03-27T12:29:33.902Z,1.45
2023-03-27T12:32:22.587Z,1.15
2023-03-27T12:34:55.701Z,1.30
2023-03-27T12:40:00.059Z,0.90
2023-03-27T12:42:43.846Z,1.00
2023-03-27T12:48:11.952Z,1.17
2023-03-27T12:50:45.873Z,1.23
2023-03-27T12:53:25.298Z,0.68
2023-03-27T12:56:16.308Z,1.13
2023-03-27T12:58:53.189Z,0.80
2023-03-27T13:01:51.708Z,1.13
2023-03-27T13:04:57.140Z,1.20
2023-03-27T13:07:30.181Z,0.90
2023-03-27T13:12:38.027Z,1.08
2023-03-27T13:15:42.433Z,1.05
2023-03-27T13:18:32.646Z,0.75
2023-03-27T13:21:23.241Z,0.80
2023-03-27T13:24:19.189Z,1.02
2023-03-27T13:26:51.939Z,0.95
2023-03-27T13:29:31.939Z,1.70
2023-03-27T13:32:20.595Z,1.00
2023-03-27T13:35:02.108Z,1.50
2023-03-27T13:37:36.965Z,1.48
2023-03-27T13:40:31.263Z,1.25
2023-03-27T13:43:02.801Z,1.00
2023-03-27T13:45:37.282Z,1.35
2023-03-27T13:48:28.876Z,1.30
2023-03-27T13:51:33.287Z,1.15
2023-03-27T13:54:27.912Z,1.23
2023-03-27T13:57:16.535Z,1.10
2023-03-27T13:59:52.057Z,1.45
2023-03-27T14:02:41.825Z,1.10
2023-03-27T14:05:21.956Z,1.00
2023-03-27T14:08:04.733Z,1.05
2023-03-27T14:10:57.076Z,1.67
2023-03-27T14:14:01.706Z,1.40
2023-03-27T14:17:01.926Z,1.40
2023-03-27T14:19:41.329Z,1.20
2023-03-27T14:22:20.573Z,1.00
2023-03-27T14:24:56.067Z,0.90
2023-03-27T14:27:23.062Z,1.17
2023-03-27T14:30:15.873Z,0.80
2023-03-27T14:32:44.040Z,0.88
2023-03-27T14:35:30.585Z,1.40
2023-03-27T14:38:02.104Z,1.08
2023-03-27T14:40:32.078Z,1.25
2023-03-27T14:43:00.881Z,1.27
2023-03-27T14:45:32.852Z,1.20
2023-03-27T14:48:03.218Z,1.52
2023-03-27T14:50:30.559Z,2.05
2023-03-27T14:52:58.402Z,1.35
2023-03-27T14:55:32.443Z,1.65
2023-03-27T14:58:00.884Z,1.30
2023-03-27T15:00:28.437Z,1.10
2023-03-27T15:02:55.464Z,1.20
2023-03-27T15:05:22.870Z,1.50
2023-03-27T15:07:49.813Z,1.30
2023-03-27T15:10:24.533Z,0.88
2023-03-27T15:12:52.013Z,1.67
2023-03-27T15:15:34.969Z,1.60
2023-03-27T15:18:05.325Z,1.48
2023-03-27T15:20:34.260Z,1.20
2023-03-27T15:23:13.112Z,1.15
2023-03-27T15:25:44.656Z,1.30
2023-03-27T15:28:24.612Z,1.40
2023-03-27T15:30:52.807Z,1.90
2023-03-27T15:33:29.316Z,0.95
2023-03-27T15:35:56.412Z,0.73
2023-03-27T15:38:26.586Z,0.82
2023-03-27T15:41:03.133Z,1.15
2023-03-27T15:43:30.683Z,1.20
2023-03-27T15:46:02.728Z,0.93
2023-03-27T15:48:31.056Z,1.25
2023-03-27T15:51:06.229Z,1.20
2023-03-27T15:53:37.436Z,0.95
2023-03-27T15:56:16.954Z,1.17
2023-03-27T15:59:02.420Z,1.38
2023-03-27T16:01:33.320Z,1.38
2023-03-27T16:04:04.995Z,1.58
2023-03-27T16:06:36.628Z,1.10
2023-03-27T16:09:24.484Z,1.30
2023-03-27T16:11:52.952Z,1.42
2023-03-27T16:14:44.784Z,1.13
2023-03-27T16:17:20.943Z,1.23
2023-03-27T16:19:55.051Z,1.20
2023-03-27T16:22:23.876Z,1.50
2023-03-27T16:24:50.691Z,1.80
2023-03-27T16:27:23.746Z,1.45
2023-03-27T16:32:19.043Z,1.55
2023-03-27T16:34:47.853Z,1.40
2023-03-27T16:37:15.868Z,1.40
2023-03-27T16:39:43.195Z,1.40
2023-03-27T16:42:24.112Z,1.40
2023-03-27T16:44:53.256Z,1.23
2023-03-27T16:47:20.646Z,1.38
2023-03-27T16:49:56.240Z,1.15
2023-03-27T16:52:27.620Z,1.20
2023-03-27T16:54:54.757Z,1.30
2023-03-27T16:57:21.567Z,1.85
2023-03-27T16:59:48.314Z,0.95
2023-03-27T17:02:15.163Z,1.00
2023-03-27T17:04:44.130Z,1.17
2023-03-27T17:07:11.245Z,1.40
2023-03-27T17:09:38.173Z,1.50
2023-03-27T17:12:05.171Z,1.05
2023-03-27T17:14:31.955Z,0.90
2023-03-27T17:16:58.675Z,1.17
2023-03-27T17:19:25.599Z,1.63
2023-03-27T17:21:52.303Z,1.30
2023-03-27T17:24:20.002Z,1.10
2023-03-27T17:26:46.789Z,1.65
2023-03-27T17:29:13.863Z,1.40
2023-03-27T17:31:40.701Z,1.65
2023-03-27T17:34:08.104Z,1.52
2023-03-27T17:36:43.156Z,1.40
2023-03-27T17:39:14.169Z,1.85
2023-03-27T17:41:41.057Z,3.25
2023-03-27T17:44:10.002Z,1.70
2023-03-27T17:46:36.982Z,1.55
2023-03-27T17:49:04.053Z,1.73
2023-03-27T17:51:30.802Z,1.38
2023-03-27T17:53:57.574Z,1.70
2023-03-27T17:56:24.677Z,1.90
2023-03-27T17:58:51.486Z,1.85
2023-03-27T18:01:23.010Z,1.38
2023-03-27T18:03:52.036Z,1.70
2023-03-27T18:06:22.006Z,2.67
2023-03-27T18:08:52.996Z,2.20
2023-03-27T18:11:19.905Z,2.13
2023-03-27T18:13:53.060Z,2.30
2023-03-27T18:16:20.408Z,1.83
2023-03-27T18:18:47.662Z,2.83
2023-03-27T18:21:16.199Z,2.78
2023-03-27T18:23:46.077Z,2.63
2023-03-27T18:26:14.050Z,2.50
2023-03-27T18:28:40.865Z,2.45
2023-03-27T18:31:09.377Z,2.42
2023-03-27T18:33:36.278Z,2.58
2023-03-27T18:36:04.307Z,2.67
2023-03-27T18:38:31.176Z,3.08
2023-03-27T18:41:00.092Z,2.72
2023-03-27T18:43:27.154Z,3.67
2023-03-27T18:45:58.516Z,4.00
2023-03-27T18:48:26.476Z,3.65
2023-03-27T18:50:57.765Z,3.20
2023-03-27T18:53:24.827Z,3.22
2023-03-27T18:55:52.624Z,3.10
2023-03-27T18:58:19.997Z,3.05
2023-03-27T19:00:46.766Z,2.13
2023-03-27T19:03:15.598Z,2.50
2023-03-27T19:05:42.362Z,2.50
2023-03-27T19:08:09.102Z,2.42
2023-03-27T19:10:36.297Z,2.67
2023-03-27T19:13:03.713Z,3.72
2023-03-27T19:15:30.838Z,3.10
2023-03-27T19:17:57.813Z,2.40
2023-03-27T19:20:26.118Z,2.90
2023-03-27T19:22:53.076Z,1.92
2023-03-27T19:25:20.185Z,2.50
2023-03-27T19:27:47.167Z,2.58
2023-03-27T19:30:14.742Z,1.70
2023-03-27T19:32:41.769Z,1.90
2023-03-27T19:35:09.511Z,2.00
2023-03-27T19:37:36.968Z,2.05
2023-03-27T19:40:05.516Z,2.28
2023-03-27T19:42:32.482Z,1.70
2023-03-27T19:44:59.252Z,1.73
2023-03-27T19:47:26.008Z,1.77
2023-03-27T19:49:53.759Z,2.25
2023-03-27T19:52:20.535Z,1.92
2023-03-27T19:54:47.696Z,1.88
2023-03-27T19:57:14.893Z,2.55
2023-03-27T19:59:41.696Z,1.63
2023-03-27T20:02:11.422Z,2.33
2023-03-27T20:04:38.249Z,2.35
2023-03-27T20:07:07.173Z,1.70
2023-03-27T20:09:34.516Z,2.28
2023-03-27T20:12:01.880Z,2.03
2023-03-27T20:14:28.643Z,2.30
2023-03-27T20:16:55.475Z,2.28
2023-03-27T20:19:28.308Z,2.45
2023-03-27T20:21:55.693Z,2.33
2023-03-27T20:24:22.509Z,2.35
2023-03-27T20:26:53.223Z,2.55
2023-03-27T20:29:22.204Z,2.75
2023-03-27T20:31:49.342Z,2.90
2023-03-27T20:34:20.155Z,2.20
2023-03-27T20:36:47.830Z,2.88
2023-03-27T20:39:17.837Z,2.78
2023-03-27T20:41:47.187Z,2.88
2023-03-27T20:44:17.237Z,3.17
2023-03-27T20:46:52.221Z,2.90
2023-03-27T20:51:59.887Z,2.58
2023-03-27T20:54:27.564Z,1.80
2023-03-27T20:56:54.490Z,1.90
2023-03-27T20:59:21.767Z,1.50
2023-03-27T21:01:48.914Z,1.60
2023-03-27T21:04:16.051Z,1.83
2023-03-27T21:06:43.270Z,1.40
2023-03-27T21:09:14.556Z,1.65
2023-03-27T21:11:42.494Z,1.48
2023-03-27T21:14:09.395Z,1.50
2023-03-27T21:16:37.832Z,1.60
2023-03-27T21:19:04.825Z,1.58
2023-03-27T21:21:32.167Z,1.52
2023-03-27T21:23:59.029Z,1.23
2023-03-27T21:26:25.802Z,1.58
2023-03-27T21:28:52.937Z,1.75
2023-03-27T21:31:20.511Z,1.80
2023-03-27T21:33:47.248Z,1.83
2023-03-27T21:36:14.081Z,2.38
2023-03-27T21:38:40.913Z,2.50
2023-03-27T21:41:07.831Z,1.80
2023-03-27T21:43:34.706Z,1.60
2023-03-27T21:46:03.724Z,1.52
2023-03-27T21:48:31.450Z,1.50
2023-03-27T21:51:01.115Z,1.70
2023-03-27T21:53:28.224Z,1.58
2023-03-27T21:55:55.068Z,1.58
2023-03-27T21:58:21.814Z,2.20
2023-03-27T22:00:48.511Z,1.70
2023-03-27T22:03:15.708Z,1.40
2023-03-27T22:05:42.501Z,2.03
2023-03-27T22:08:09.252Z,1.50
2023-03-27T22:10:36.375Z,1.75
2023-03-27T22:13:03.610Z,1.58
2023-03-27T22:15:30.504Z,1.70
2023-03-27T22:17:57.374Z,1.77
2023-03-27T22:20:24.271Z,1.65
2023-03-27T22:22:51.118Z,1.52
2023-03-27T22:25:18.089Z,1.65
2023-03-27T22:27:46.500Z,1.65
2023-03-27T22:30:13.747Z,1.92
2023-03-27T22:32:41.946Z,1.77
2023-03-27T22:35:09.362Z,1.90
2023-03-27T22:37:37.036Z,2.42
2023-03-27T22:40:04.589Z,2.47
2023-03-27T22:42:31.436Z,2.17
2023-03-27T22:44:58.317Z,2.25
2023-03-27T22:47:25.581Z,1.77
2023-03-27T22:49:52.376Z,1.80
2023-03-27T22:52:19.128Z,1.85
2023-03-27T22:54:46.058Z,2.05
2023-03-27T22:57:12.863Z,2.15
2023-03-27T22:59:39.599Z,2.00
2023-03-27T23:02:06.544Z,2.17
2023-03-27T23:04:33.336Z,2.25
2023-03-27T23:07:01.438Z,2.40
2023-03-27T23:09:28.201Z,3.00
2023-03-27T23:11:54.954Z,3.20
2023-03-27T23:14:21.672Z,3.22
2023-03-27T23:16:48.416Z,3.17
2023-03-27T23:19:15.849Z,2.40
2023-03-27T23:21:42.699Z,2.10
2023-03-27T23:24:09.410Z,2.30
2023-03-27T23:26:36.218Z,2.60
2023-03-27T23:29:02.968Z,1.95
2023-03-27T23:31:29.721Z,2.58
2023-03-27T23:33:56.516Z,2.10
2023-03-27T23:36:24.459Z,2.35
2023-03-27T23:38:51.783Z,2.20
2023-03-27T23:41:19.265Z,2.67
2023-03-27T23:43:46.171Z,2.58
2023-03-27T23:46:13.266Z,1.83
2023-03-27T23:48:42.073Z,1.98
2023-03-27T23:51:09.458Z,2.50
2023-03-27T23:53:36.527Z,1.98
2023-03-27T23:56:03.604Z,2.00
2023-03-27T23:58:32.759Z,2.50
